sensor_id;sensor_type;location;lat;lon;timestamp;P1;durP1;ratioP1;P2;durP2;ratioP2
10150;SDS011;5116;52.318;4.644;2023-04-30T00:02:25;4.67;;;3.00;;
10150;SDS011;5116;52.318;4.644;2023-04-30T00:04:52;4.57;;;3.13;;
10150;SDS011;5116;52.318;4.644;2023-04-30T00:07:20;4.67;;;3.50;;
10150;SDS011;5116;52.318;4.644;2023-04-30T00:09:47;5.47;;;3.57;;
10150;SDS011;5116;52.318;4.644;2023-04-30T00:12:16;4.93;;;3.33;;
10150;SDS011;5116;52.318;4.644;2023-04-30T00:14:44;6.43;;;3.40;;
10150;SDS011;5116;52.318;4.644;2023-04-30T00:17:11;4.93;;;3.57;;
10150;SDS011;5116;52.318;4.644;2023-04-30T00:19:38;5.57;;;3.63;;
10150;SDS011;5116;52.318;4.644;2023-04-30T00:22:06;5.83;;;3.73;;
10150;SDS011;5116;52.318;4.644;2023-04-30T00:24:34;5.73;;;3.93;;
10150;SDS011;5116;52.318;4.644;2023-04-30T00:27:01;3.70;;;3.20;;
10150;SDS011;5116;52.318;4.644;2023-04-30T00:29:28;6.20;;;3.47;;
10150;SDS011;5116;52.318;4.644;2023-04-30T00:31:56;5.23;;;3.70;;
10150;SDS011;5116;52.318;4.644;2023-04-30T00:34:24;6.30;;;4.47;;
10150;SDS011;5116;52.318;4.644;2023-04-30T00:36:51;4.77;;;3.87;;
10150;SDS011;5116;52.318;4.644;2023-04-30T00:39:18;5.60;;;3.87;;
10150;SDS011;5116;52.318;4.644;2023-04-30T00:41:46;4.43;;;3.20;;
10150;SDS011;5116;52.318;4.644;2023-04-30T00:44:13;4.80;;;3.57;;
10150;SDS011;5116;52.318;4.644;2023-04-30T00:46:40;4.00;;;3.60;;
10150;SDS011;5116;52.318;4.644;2023-04-30T00:49:08;6.43;;;4.13;;
10150;SDS011;5116;52.318;4.644;2023-04-30T00:51:35;6.50;;;4.20;;
10150;SDS011;5116;52.318;4.644;2023-04-30T00:54:05;5.53;;;3.93;;
10150;SDS011;5116;52.318;4.644;2023-04-30T00:56:33;7.87;;;4.10;;
10150;SDS011;5116;52.318;4.644;2023-04-30T00:59:01;8.00;;;3.57;;
10150;SDS011;5116;52.318;4.644;2023-04-30T01:01:28;5.63;;;4.30;;
10150;SDS011;5116;52.318;4.644;2023-04-30T01:03:57;5.97;;;3.70;;
10150;SDS011;5116;52.318;4.644;2023-04-30T01:06:26;4.63;;;3.80;;
10150;SDS011;5116;52.318;4.644;2023-04-30T01:08:54;6.17;;;3.80;;
10150;SDS011;5116;52.318;4.644;2023-04-30T01:13:52;6.00;;;4.50;;
10150;SDS011;5116;52.318;4.644;2023-04-30T01:16:22;4.90;;;4.03;;
10150;SDS011;5116;52.318;4.644;2023-04-30T01:18:51;5.27;;;4.10;;
10150;SDS011;5116;52.318;4.644;2023-04-30T01:21:21;6.43;;;4.13;;
10150;SDS011;5116;52.318;4.644;2023-04-30T01:29:18;4.93;;;3.23;;
10150;SDS011;5116;52.318;4.644;2023-04-30T01:31:48;4.63;;;3.53;;
10150;SDS011;5116;52.318;4.644;2023-04-30T01:34:16;6.80;;;4.20;;
10150;SDS011;5116;52.318;4.644;2023-04-30T01:42:19;5.60;;;4.03;;
10150;SDS011;5116;52.318;4.644;2023-04-30T01:44:51;6.50;;;3.80;;
10150;SDS011;5116;52.318;4.644;2023-04-30T01:47:35;4.63;;;3.63;;
10150;SDS011;5116;52.318;4.644;2023-04-30T01:50:14;4.87;;;4.03;;
10150;SDS011;5116;52.318;4.644;2023-04-30T01:52:46;5.10;;;3.70;;
10150;SDS011;5116;52.318;4.644;2023-04-30T01:57:54;5.03;;;3.57;;
10150;SDS011;5116;52.318;4.644;2023-04-30T02:00:23;4.73;;;3.80;;
10150;SDS011;5116;52.318;4.644;2023-04-30T02:02:54;7.17;;;3.87;;
10150;SDS011;5116;52.318;4.644;2023-04-30T02:05:21;6.47;;;4.27;;
10150;SDS011;5116;52.318;4.644;2023-04-30T02:07:49;5.53;;;3.93;;
10150;SDS011;5116;52.318;4.644;2023-04-30T02:10:18;4.93;;;3.70;;
10150;SDS011;5116;52.318;4.644;2023-04-30T02:12:46;5.43;;;4.00;;
10150;SDS011;5116;52.318;4.644;2023-04-30T02:15:14;7.67;;;4.13;;
10150;SDS011;5116;52.318;4.644;2023-04-30T02:17:41;5.03;;;4.20;;
10150;SDS011;5116;52.318;4.644;2023-04-30T02:20:10;5.27;;;4.27;;
10150;SDS011;5116;52.318;4.644;2023-04-30T02:22:37;4.30;;;3.70;;
10150;SDS011;5116;52.318;4.644;2023-04-30T02:25:05;5.40;;;4.10;;
10150;SDS011;5116;52.318;4.644;2023-04-30T02:27:32;6.37;;;4.40;;
10150;SDS011;5116;52.318;4.644;2023-04-30T02:30:00;4.27;;;3.50;;
10150;SDS011;5116;52.318;4.644;2023-04-30T02:32:28;5.87;;;4.53;;
10150;SDS011;5116;52.318;4.644;2023-04-30T02:34:56;6.50;;;4.40;;
10150;SDS011;5116;52.318;4.644;2023-04-30T02:37:24;4.37;;;3.63;;
10150;SDS011;5116;52.318;4.644;2023-04-30T02:39:52;4.30;;;3.60;;
10150;SDS011;5116;52.318;4.644;2023-04-30T02:42:20;5.00;;;4.07;;
10150;SDS011;5116;52.318;4.644;2023-04-30T02:44:47;5.70;;;4.50;;
10150;SDS011;5116;52.318;4.644;2023-04-30T02:47:15;5.53;;;4.23;;
10150;SDS011;5116;52.318;4.644;2023-04-30T02:49:42;6.70;;;4.33;;
10150;SDS011;5116;52.318;4.644;2023-04-30T02:52:10;8.23;;;5.33;;
10150;SDS011;5116;52.318;4.644;2023-04-30T02:54:38;5.40;;;4.03;;
10150;SDS011;5116;52.318;4.644;2023-04-30T02:57:05;6.93;;;4.30;;
10150;SDS011;5116;52.318;4.644;2023-04-30T02:59:33;5.40;;;4.13;;
10150;SDS011;5116;52.318;4.644;2023-04-30T03:02:00;6.03;;;3.90;;
10150;SDS011;5116;52.318;4.644;2023-04-30T03:04:28;5.47;;;4.40;;
10150;SDS011;5116;52.318;4.644;2023-04-30T03:06:56;5.37;;;3.80;;
10150;SDS011;5116;52.318;4.644;2023-04-30T03:09:23;7.13;;;4.17;;
10150;SDS011;5116;52.318;4.644;2023-04-30T03:11:50;4.70;;;3.70;;
10150;SDS011;5116;52.318;4.644;2023-04-30T03:14:18;5.00;;;3.80;;
10150;SDS011;5116;52.318;4.644;2023-04-30T03:16:45;5.87;;;3.90;;
10150;SDS011;5116;52.318;4.644;2023-04-30T03:19:13;6.97;;;4.33;;
10150;SDS011;5116;52.318;4.644;2023-04-30T03:21:40;6.53;;;4.33;;
10150;SDS011;5116;52.318;4.644;2023-04-30T03:24:08;5.90;;;4.37;;
10150;SDS011;5116;52.318;4.644;2023-04-30T03:26:35;4.80;;;3.63;;
10150;SDS011;5116;52.318;4.644;2023-04-30T03:29:03;5.60;;;3.80;;
10150;SDS011;5116;52.318;4.644;2023-04-30T03:31:30;5.63;;;4.20;;
10150;SDS011;5116;52.318;4.644;2023-04-30T03:33:58;5.43;;;4.10;;
10150;SDS011;5116;52.318;4.644;2023-04-30T03:36:25;5.87;;;4.40;;
10150;SDS011;5116;52.318;4.644;2023-04-30T03:38:53;4.70;;;3.90;;
10150;SDS011;5116;52.318;4.644;2023-04-30T03:41:20;5.50;;;4.23;;
10150;SDS011;5116;52.318;4.644;2023-04-30T03:43:49;5.23;;;3.90;;
10150;SDS011;5116;52.318;4.644;2023-04-30T03:46:17;5.30;;;3.80;;
10150;SDS011;5116;52.318;4.644;2023-04-30T03:48:46;6.53;;;4.50;;
10150;SDS011;5116;52.318;4.644;2023-04-30T03:51:14;5.00;;;3.63;;
10150;SDS011;5116;52.318;4.644;2023-04-30T03:53:41;5.40;;;4.10;;
10150;SDS011;5116;52.318;4.644;2023-04-30T03:56:09;5.43;;;3.90;;
10150;SDS011;5116;52.318;4.644;2023-04-30T03:58:36;5.80;;;3.97;;
10150;SDS011;5116;52.318;4.644;2023-04-30T04:01:04;4.80;;;3.17;;
10150;SDS011;5116;52.318;4.644;2023-04-30T04:03:33;4.80;;;3.50;;
10150;SDS011;5116;52.318;4.644;2023-04-30T04:06:00;6.60;;;3.53;;
10150;SDS011;5116;52.318;4.644;2023-04-30T04:08:29;5.10;;;4.00;;
10150;SDS011;5116;52.318;4.644;2023-04-30T04:10:57;5.00;;;3.83;;
10150;SDS011;5116;52.318;4.644;2023-04-30T04:13:25;5.13;;;3.40;;
10150;SDS011;5116;52.318;4.644;2023-04-30T04:15:52;3.60;;;3.10;;
10150;SDS011;5116;52.318;4.644;2023-04-30T04:18:20;4.13;;;3.57;;
10150;SDS011;5116;52.318;4.644;2023-04-30T04:20:47;4.37;;;3.13;;
10150;SDS011;5116;52.318;4.644;2023-04-30T04:23:15;5.03;;;3.43;;
10150;SDS011;5116;52.318;4.644;2023-04-30T04:25:42;3.80;;;3.20;;
10150;SDS011;5116;52.318;4.644;2023-04-30T04:28:11;5.20;;;3.30;;
10150;SDS011;5116;52.318;4.644;2023-04-30T04:30:39;4.00;;;3.00;;
10150;SDS011;5116;52.318;4.644;2023-04-30T04:33:07;3.73;;;3.00;;
10150;SDS011;5116;52.318;4.644;2023-04-30T04:35:34;4.40;;;3.57;;
10150;SDS011;5116;52.318;4.644;2023-04-30T04:38:02;5.07;;;3.27;;
10150;SDS011;5116;52.318;4.644;2023-04-30T04:40:32;4.93;;;3.60;;
10150;SDS011;5116;52.318;4.644;2023-04-30T04:43:00;5.57;;;3.00;;
10150;SDS011;5116;52.318;4.644;2023-04-30T04:45:28;3.50;;;3.03;;
10150;SDS011;5116;52.318;4.644;2023-04-30T04:47:57;4.17;;;3.10;;
10150;SDS011;5116;52.318;4.644;2023-04-30T04:50:25;5.13;;;2.93;;
10150;SDS011;5116;52.318;4.644;2023-04-30T04:52:53;4.63;;;3.27;;
10150;SDS011;5116;52.318;4.644;2023-04-30T04:55:20;4.50;;;3.70;;
10150;SDS011;5116;52.318;4.644;2023-04-30T04:57:48;3.80;;;3.10;;
10150;SDS011;5116;52.318;4.644;2023-04-30T05:00:15;3.93;;;3.53;;
10150;SDS011;5116;52.318;4.644;2023-04-30T05:02:44;3.20;;;2.90;;
10150;SDS011;5116;52.318;4.644;2023-04-30T05:05:11;4.93;;;2.70;;
10150;SDS011;5116;52.318;4.644;2023-04-30T05:07:39;3.10;;;2.80;;
10150;SDS011;5116;52.318;4.644;2023-04-30T05:10:07;2.60;;;2.40;;
10150;SDS011;5116;52.318;4.644;2023-04-30T05:12:34;3.00;;;2.40;;
10150;SDS011;5116;52.318;4.644;2023-04-30T05:15:01;2.93;;;2.67;;
10150;SDS011;5116;52.318;4.644;2023-04-30T05:17:30;4.77;;;2.80;;
10150;SDS011;5116;52.318;4.644;2023-04-30T05:19:57;3.93;;;2.63;;
10150;SDS011;5116;52.318;4.644;2023-04-30T05:22:24;3.57;;;2.70;;
10150;SDS011;5116;52.318;4.644;2023-04-30T05:24:52;4.30;;;2.97;;
10150;SDS011;5116;52.318;4.644;2023-04-30T05:27:19;3.87;;;2.63;;
10150;SDS011;5116;52.318;4.644;2023-04-30T05:29:47;3.13;;;2.53;;
10150;SDS011;5116;52.318;4.644;2023-04-30T05:32:14;2.60;;;2.13;;
10150;SDS011;5116;52.318;4.644;2023-04-30T05:34:41;4.32;;;3.10;;
10150;SDS011;5116;52.318;4.644;2023-04-30T05:37:09;2.90;;;2.60;;
10150;SDS011;5116;52.318;4.644;2023-04-30T05:39:37;2.93;;;2.50;;
10150;SDS011;5116;52.318;4.644;2023-04-30T05:42:05;3.90;;;3.10;;
10150;SDS011;5116;52.318;4.644;2023-04-30T05:44:32;4.80;;;2.87;;
10150;SDS011;5116;52.318;4.644;2023-04-30T05:47:00;3.23;;;2.93;;
10150;SDS011;5116;52.318;4.644;2023-04-30T05:49:28;3.03;;;2.50;;
10150;SDS011;5116;52.318;4.644;2023-04-30T05:51:55;3.57;;;3.13;;
10150;SDS011;5116;52.318;4.644;2023-04-30T05:54:22;3.23;;;2.83;;
10150;SDS011;5116;52.318;4.644;2023-04-30T05:56:50;3.33;;;2.70;;
10150;SDS011;5116;52.318;4.644;2023-04-30T05:59:17;3.10;;;2.67;;
10150;SDS011;5116;52.318;4.644;2023-04-30T06:01:44;4.13;;;2.67;;
10150;SDS011;5116;52.318;4.644;2023-04-30T06:04:12;3.10;;;2.53;;
10150;SDS011;5116;52.318;4.644;2023-04-30T06:06:39;5.00;;;3.10;;
10150;SDS011;5116;52.318;4.644;2023-04-30T06:09:07;3.03;;;2.73;;
10150;SDS011;5116;52.318;4.644;2023-04-30T06:11:35;3.30;;;3.00;;
10150;SDS011;5116;52.318;4.644;2023-04-30T06:14:02;2.80;;;2.50;;
10150;SDS011;5116;52.318;4.644;2023-04-30T06:16:30;2.53;;;2.33;;
10150;SDS011;5116;52.318;4.644;2023-04-30T06:18:57;3.27;;;2.40;;
10150;SDS011;5116;52.318;4.644;2023-04-30T06:21:25;2.60;;;2.40;;
10150;SDS011;5116;52.318;4.644;2023-04-30T06:23:52;2.70;;;2.33;;
10150;SDS011;5116;52.318;4.644;2023-04-30T06:26:19;4.53;;;2.80;;
10150;SDS011;5116;52.318;4.644;2023-04-30T06:28:47;3.40;;;2.83;;
10150;SDS011;5116;52.318;4.644;2023-04-30T06:31:14;4.37;;;2.73;;
10150;SDS011;5116;52.318;4.644;2023-04-30T06:33:42;3.80;;;3.23;;
10150;SDS011;5116;52.318;4.644;2023-04-30T06:36:09;3.17;;;2.70;;
10150;SDS011;5116;52.318;4.644;2023-04-30T06:38:36;3.00;;;2.67;;
10150;SDS011;5116;52.318;4.644;2023-04-30T06:41:04;3.07;;;2.77;;
10150;SDS011;5116;52.318;4.644;2023-04-30T06:43:31;3.30;;;2.60;;
10150;SDS011;5116;52.318;4.644;2023-04-30T06:45:58;3.10;;;2.27;;
10150;SDS011;5116;52.318;4.644;2023-04-30T06:48:26;4.33;;;3.40;;
10150;SDS011;5116;52.318;4.644;2023-04-30T06:50:53;2.90;;;2.60;;
10150;SDS011;5116;52.318;4.644;2023-04-30T06:53:20;3.23;;;2.73;;
10150;SDS011;5116;52.318;4.644;2023-04-30T06:55:48;3.23;;;2.87;;
10150;SDS011;5116;52.318;4.644;2023-04-30T06:58:16;2.80;;;2.60;;
10150;SDS011;5116;52.318;4.644;2023-04-30T07:00:44;2.90;;;2.57;;
10150;SDS011;5116;52.318;4.644;2023-04-30T07:03:11;2.67;;;2.47;;
10150;SDS011;5116;52.318;4.644;2023-04-30T07:05:39;3.60;;;2.80;;
10150;SDS011;5116;52.318;4.644;2023-04-30T07:08:07;4.77;;;3.20;;
10150;SDS011;5116;52.318;4.644;2023-04-30T07:10:34;3.40;;;2.23;;
10150;SDS011;5116;52.318;4.644;2023-04-30T07:13:02;3.00;;;2.20;;
10150;SDS011;5116;52.318;4.644;2023-04-30T07:15:29;3.67;;;2.73;;
10150;SDS011;5116;52.318;4.644;2023-04-30T07:17:57;3.13;;;2.30;;
10150;SDS011;5116;52.318;4.644;2023-04-30T07:20:24;2.43;;;2.23;;
10150;SDS011;5116;52.318;4.644;2023-04-30T07:22:52;3.47;;;2.90;;
10150;SDS011;5116;52.318;4.644;2023-04-30T07:25:20;3.93;;;2.63;;
10150;SDS011;5116;52.318;4.644;2023-04-30T07:27:50;3.10;;;2.70;;
10150;SDS011;5116;52.318;4.644;2023-04-30T07:30:18;2.97;;;2.70;;
10150;SDS011;5116;52.318;4.644;2023-04-30T07:32:47;4.60;;;2.83;;
10150;SDS011;5116;52.318;4.644;2023-04-30T07:35:15;2.87;;;2.50;;
10150;SDS011;5116;52.318;4.644;2023-04-30T07:37:43;3.10;;;2.33;;
10150;SDS011;5116;52.318;4.644;2023-04-30T07:40:11;3.20;;;2.50;;
10150;SDS011;5116;52.318;4.644;2023-04-30T07:42:44;2.80;;;2.37;;
10150;SDS011;5116;52.318;4.644;2023-04-30T07:45:12;2.50;;;2.30;;
10150;SDS011;5116;52.318;4.644;2023-04-30T07:47:39;3.13;;;2.13;;
10150;SDS011;5116;52.318;4.644;2023-04-30T07:50:06;4.27;;;2.50;;
10150;SDS011;5116;52.318;4.644;2023-04-30T07:52:34;3.37;;;2.57;;
10150;SDS011;5116;52.318;4.644;2023-04-30T07:55:01;4.10;;;2.40;;
10150;SDS011;5116;52.318;4.644;2023-04-30T07:57:29;2.77;;;2.30;;
10150;SDS011;5116;52.318;4.644;2023-04-30T07:59:56;2.63;;;2.37;;
10150;SDS011;5116;52.318;4.644;2023-04-30T08:02:24;2.60;;;2.13;;
10150;SDS011;5116;52.318;4.644;2023-04-30T08:04:52;2.50;;;2.30;;
10150;SDS011;5116;52.318;4.644;2023-04-30T08:07:19;2.43;;;2.03;;
10150;SDS011;5116;52.318;4.644;2023-04-30T08:09:47;2.70;;;2.20;;
10150;SDS011;5116;52.318;4.644;2023-04-30T08:12:15;2.30;;;2.10;;
10150;SDS011;5116;52.318;4.644;2023-04-30T08:14:43;2.47;;;2.27;;
10150;SDS011;5116;52.318;4.644;2023-04-30T08:17:10;3.83;;;2.30;;
10150;SDS011;5116;52.318;4.644;2023-04-30T08:19:38;2.77;;;2.47;;
10150;SDS011;5116;52.318;4.644;2023-04-30T08:22:05;1.97;;;1.77;;
10150;SDS011;5116;52.318;4.644;2023-04-30T08:24:33;4.13;;;2.50;;
10150;SDS011;5116;52.318;4.644;2023-04-30T08:27:00;1.97;;;1.70;;
10150;SDS011;5116;52.318;4.644;2023-04-30T08:29:29;2.57;;;2.20;;
10150;SDS011;5116;52.318;4.644;2023-04-30T08:31:57;3.57;;;2.63;;
10150;SDS011;5116;52.318;4.644;2023-04-30T08:34:29;2.90;;;2.30;;
10150;SDS011;5116;52.318;4.644;2023-04-30T08:36:57;2.43;;;1.93;;
10150;SDS011;5116;52.318;4.644;2023-04-30T08:39:24;2.30;;;2.10;;
10150;SDS011;5116;52.318;4.644;2023-04-30T08:41:55;2.33;;;2.13;;
10150;SDS011;5116;52.318;4.644;2023-04-30T08:44:24;2.50;;;2.17;;
10150;SDS011;5116;52.318;4.644;2023-04-30T08:46:53;2.27;;;1.83;;
10150;SDS011;5116;52.318;4.644;2023-04-30T08:49:21;5.70;;;2.50;;
10150;SDS011;5116;52.318;4.644;2023-04-30T08:51:50;2.40;;;2.20;;
10150;SDS011;5116;52.318;4.644;2023-04-30T08:54:19;2.30;;;2.10;;
10150;SDS011;5116;52.318;4.644;2023-04-30T08:56:47;2.90;;;2.00;;
10150;SDS011;5116;52.318;4.644;2023-04-30T08:59:14;2.30;;;2.00;;
10150;SDS011;5116;52.318;4.644;2023-04-30T09:01:42;3.43;;;2.17;;
10150;SDS011;5116;52.318;4.644;2023-04-30T09:04:09;2.67;;;2.30;;
10150;SDS011;5116;52.318;4.644;2023-04-30T09:06:37;2.30;;;2.10;;
10150;SDS011;5116;52.318;4.644;2023-04-30T09:09:08;2.37;;;1.90;;
10150;SDS011;5116;52.318;4.644;2023-04-30T09:11:36;2.83;;;2.00;;
10150;SDS011;5116;52.318;4.644;2023-04-30T09:14:04;2.60;;;2.40;;
10150;SDS011;5116;52.318;4.644;2023-04-30T09:16:52;2.47;;;2.27;;
10150;SDS011;5116;52.318;4.644;2023-04-30T09:19:27;3.00;;;2.67;;
10150;SDS011;5116;52.318;4.644;2023-04-30T09:21:54;3.03;;;2.07;;
10150;SDS011;5116;52.318;4.644;2023-04-30T09:24:22;2.60;;;2.30;;
10150;SDS011;5116;52.318;4.644;2023-04-30T09:26:50;2.70;;;2.13;;
10150;SDS011;5116;52.318;4.644;2023-04-30T09:29:17;2.60;;;2.40;;
10150;SDS011;5116;52.318;4.644;2023-04-30T09:31:45;2.40;;;2.20;;
10150;SDS011;5116;52.318;4.644;2023-04-30T09:34:13;2.37;;;2.10;;
10150;SDS011;5116;52.318;4.644;2023-04-30T09:36:51;2.53;;;1.90;;
10150;SDS011;5116;52.318;4.644;2023-04-30T09:39:21;2.20;;;2.00;;
10150;SDS011;5116;52.318;4.644;2023-04-30T09:41:49;1.93;;;1.73;;
10150;SDS011;5116;52.318;4.644;2023-04-30T09:44:30;2.10;;;1.67;;
10150;SDS011;5116;52.318;4.644;2023-04-30T09:46:58;2.20;;;1.97;;
10150;SDS011;5116;52.318;4.644;2023-04-30T09:49:26;3.03;;;2.17;;
10150;SDS011;5116;52.318;4.644;2023-04-30T09:51:54;2.07;;;1.97;;
10150;SDS011;5116;52.318;4.644;2023-04-30T09:54:24;2.33;;;2.07;;
10150;SDS011;5116;52.318;4.644;2023-04-30T09:56:53;1.80;;;1.70;;
10150;SDS011;5116;52.318;4.644;2023-04-30T09:59:21;2.90;;;2.50;;
10150;SDS011;5116;52.318;4.644;2023-04-30T10:01:51;1.70;;;1.60;;
10150;SDS011;5116;52.318;4.644;2023-04-30T10:04:18;1.90;;;1.80;;
10150;SDS011;5116;52.318;4.644;2023-04-30T10:06:49;3.27;;;1.97;;
10150;SDS011;5116;52.318;4.644;2023-04-30T10:09:18;2.20;;;2.00;;
10150;SDS011;5116;52.318;4.644;2023-04-30T10:11:46;2.00;;;1.80;;
10150;SDS011;5116;52.318;4.644;2023-04-30T10:14:14;2.27;;;1.90;;
10150;SDS011;5116;52.318;4.644;2023-04-30T10:16:50;2.17;;;1.93;;
10150;SDS011;5116;52.318;4.644;2023-04-30T10:19:24;4.40;;;2.13;;
10150;SDS011;5116;52.318;4.644;2023-04-30T10:21:53;2.50;;;2.07;;
10150;SDS011;5116;52.318;4.644;2023-04-30T10:24:22;1.90;;;1.70;;
10150;SDS011;5116;52.318;4.644;2023-04-30T10:26:49;2.80;;;1.50;;
10150;SDS011;5116;52.318;4.644;2023-04-30T10:29:17;1.90;;;1.80;;
10150;SDS011;5116;52.318;4.644;2023-04-30T10:31:47;4.20;;;2.10;;
10150;SDS011;5116;52.318;4.644;2023-04-30T10:34:24;1.63;;;1.53;;
10150;SDS011;5116;52.318;4.644;2023-04-30T10:36:56;1.90;;;1.60;;
10150;SDS011;5116;52.318;4.644;2023-04-30T10:39:26;2.33;;;1.97;;
10150;SDS011;5116;52.318;4.644;2023-04-30T10:42:01;3.03;;;2.17;;
10150;SDS011;5116;52.318;4.644;2023-04-30T10:44:32;2.27;;;1.80;;
10150;SDS011;5116;52.318;4.644;2023-04-30T10:47:00;1.87;;;1.77;;
10150;SDS011;5116;52.318;4.644;2023-04-30T10:49:29;1.70;;;1.60;;
10150;SDS011;5116;52.318;4.644;2023-04-30T10:52:00;1.70;;;1.60;;
10150;SDS011;5116;52.318;4.644;2023-04-30T10:54:30;1.97;;;1.60;;
10150;SDS011;5116;52.318;4.644;2023-04-30T10:57:08;3.20;;;1.97;;
10150;SDS011;5116;52.318;4.644;2023-04-30T10:59:37;1.90;;;1.80;;
10150;SDS011;5116;52.318;4.644;2023-04-30T11:02:05;1.97;;;1.77;;
10150;SDS011;5116;52.318;4.644;2023-04-30T11:04:32;2.20;;;1.73;;
10150;SDS011;5116;52.318;4.644;2023-04-30T11:07:00;2.00;;;1.73;;
10150;SDS011;5116;52.318;4.644;2023-04-30T11:09:41;1.87;;;1.73;;
10150;SDS011;5116;52.318;4.644;2023-04-30T11:12:10;2.13;;;1.93;;
10150;SDS011;5116;52.318;4.644;2023-04-30T11:14:42;1.97;;;1.47;;
10150;SDS011;5116;52.318;4.644;2023-04-30T11:17:10;1.40;;;1.30;;
10150;SDS011;5116;52.318;4.644;2023-04-30T11:19:45;1.77;;;1.60;;
10150;SDS011;5116;52.318;4.644;2023-04-30T11:22:14;1.50;;;1.40;;
10150;SDS011;5116;52.318;4.644;2023-04-30T11:24:49;1.80;;;1.70;;
10150;SDS011;5116;52.318;4.644;2023-04-30T11:27:20;1.67;;;1.50;;
10150;SDS011;5116;52.318;4.644;2023-04-30T11:29:48;1.97;;;1.77;;
10150;SDS011;5116;52.318;4.644;2023-04-30T11:32:21;2.10;;;1.60;;
10150;SDS011;5116;52.318;4.644;2023-04-30T11:34:49;2.50;;;1.90;;
10150;SDS011;5116;52.318;4.644;2023-04-30T11:37:26;2.23;;;1.63;;
10150;SDS011;5116;52.318;4.644;2023-04-30T11:39:56;1.63;;;1.53;;
10150;SDS011;5116;52.318;4.644;2023-04-30T11:42:23;1.90;;;1.70;;
10150;SDS011;5116;52.318;4.644;2023-04-30T11:44:51;1.80;;;1.70;;
10150;SDS011;5116;52.318;4.644;2023-04-30T11:47:18;4.00;;;2.07;;
10150;SDS011;5116;52.318;4.644;2023-04-30T11:49:46;2.70;;;1.60;;
10150;SDS011;5116;52.318;4.644;2023-04-30T11:52:19;1.83;;;1.73;;
10150;SDS011;5116;52.318;4.644;2023-04-30T11:54:47;2.77;;;2.17;;
10150;SDS011;5116;52.318;4.644;2023-04-30T11:57:14;2.80;;;2.00;;
10150;SDS011;5116;52.318;4.644;2023-04-30T11:59:42;1.97;;;1.80;;
10150;SDS011;5116;52.318;4.644;2023-04-30T12:02:12;1.80;;;1.70;;
10150;SDS011;5116;52.318;4.644;2023-04-30T12:04:42;1.77;;;1.67;;
10150;SDS011;5116;52.318;4.644;2023-04-30T12:07:10;1.77;;;1.63;;
10150;SDS011;5116;52.318;4.644;2023-04-30T12:09:51;1.67;;;1.57;;
10150;SDS011;5116;52.318;4.644;2023-04-30T12:12:26;2.20;;;2.00;;
10150;SDS011;5116;52.318;4.644;2023-04-30T12:14:53;1.53;;;1.43;;
10150;SDS011;5116;52.318;4.644;2023-04-30T12:17:32;1.70;;;1.60;;
10150;SDS011;5116;52.318;4.644;2023-04-30T12:19:59;2.57;;;2.00;;
10150;SDS011;5116;52.318;4.644;2023-04-30T12:22:27;2.40;;;1.90;;
10150;SDS011;5116;52.318;4.644;2023-04-30T12:24:55;1.73;;;1.60;;
10150;SDS011;5116;52.318;4.644;2023-04-30T12:27:23;1.90;;;1.53;;
10150;SDS011;5116;52.318;4.644;2023-04-30T12:29:50;2.00;;;1.77;;
10150;SDS011;5116;52.318;4.644;2023-04-30T12:32:20;2.27;;;1.70;;
10150;SDS011;5116;52.318;4.644;2023-04-30T12:35:01;1.93;;;1.73;;
10150;SDS011;5116;52.318;4.644;2023-04-30T12:37:30;1.80;;;1.67;;
10150;SDS011;5116;52.318;4.644;2023-04-30T12:39:59;1.70;;;1.60;;
10150;SDS011;5116;52.318;4.644;2023-04-30T12:42:34;2.00;;;1.80;;
10150;SDS011;5116;52.318;4.644;2023-04-30T12:45:01;2.27;;;1.30;;
10150;SDS011;5116;52.318;4.644;2023-04-30T12:47:29;2.17;;;1.83;;
10150;SDS011;5116;52.318;4.644;2023-04-30T12:49:57;1.50;;;1.40;;
10150;SDS011;5116;52.318;4.644;2023-04-30T12:52:25;1.50;;;1.40;;
10150;SDS011;5116;52.318;4.644;2023-04-30T12:54:56;1.37;;;1.27;;
10150;SDS011;5116;52.318;4.644;2023-04-30T12:57:40;2.40;;;1.43;;
10150;SDS011;5116;52.318;4.644;2023-04-30T13:00:08;1.37;;;1.27;;
10150;SDS011;5116;52.318;4.644;2023-04-30T13:02:35;1.70;;;1.40;;
10150;SDS011;5116;52.318;4.644;2023-04-30T13:05:03;1.37;;;1.27;;
10150;SDS011;5116;52.318;4.644;2023-04-30T13:07:37;1.63;;;1.13;;
10150;SDS011;5116;52.318;4.644;2023-04-30T13:10:06;1.47;;;1.23;;
10150;SDS011;5116;52.318;4.644;2023-04-30T13:12:33;1.73;;;1.63;;
10150;SDS011;5116;52.318;4.644;2023-04-30T13:15:01;1.73;;;1.60;;
10150;SDS011;5116;52.318;4.644;2023-04-30T13:17:29;2.03;;;1.80;;
10150;SDS011;5116;52.318;4.644;2023-04-30T13:20:02;1.57;;;1.47;;
10150;SDS011;5116;52.318;4.644;2023-04-30T13:22:32;1.40;;;1.30;;
10150;SDS011;5116;52.318;4.644;2023-04-30T13:24:59;1.37;;;1.27;;
10150;SDS011;5116;52.318;4.644;2023-04-30T13:27:27;1.50;;;1.40;;
10150;SDS011;5116;52.318;4.644;2023-04-30T13:29:55;1.53;;;1.43;;
10150;SDS011;5116;52.318;4.644;2023-04-30T13:32:23;1.63;;;1.40;;
10150;SDS011;5116;52.318;4.644;2023-04-30T13:34:51;1.40;;;1.27;;
10150;SDS011;5116;52.318;4.644;2023-04-30T13:37:20;1.90;;;1.60;;
10150;SDS011;5116;52.318;4.644;2023-04-30T13:39:47;1.50;;;1.40;;
10150;SDS011;5116;52.318;4.644;2023-04-30T13:42:15;2.63;;;1.87;;
10150;SDS011;5116;52.318;4.644;2023-04-30T13:44:43;1.57;;;1.47;;
10150;SDS011;5116;52.318;4.644;2023-04-30T13:47:11;1.90;;;1.47;;
10150;SDS011;5116;52.318;4.644;2023-04-30T13:49:38;2.00;;;1.57;;
10150;SDS011;5116;52.318;4.644;2023-04-30T13:52:06;1.57;;;1.20;;
10150;SDS011;5116;52.318;4.644;2023-04-30T13:54:33;1.43;;;1.33;;
10150;SDS011;5116;52.318;4.644;2023-04-30T13:57:05;1.80;;;1.30;;
10150;SDS011;5116;52.318;4.644;2023-04-30T13:59:32;2.70;;;1.73;;
10150;SDS011;5116;52.318;4.644;2023-04-30T14:02:00;2.13;;;1.40;;
10150;SDS011;5116;52.318;4.644;2023-04-30T14:04:27;1.57;;;1.47;;
10150;SDS011;5116;52.318;4.644;2023-04-30T14:06:56;1.80;;;1.50;;
10150;SDS011;5116;52.318;4.644;2023-04-30T14:09:23;1.20;;;1.10;;
10150;SDS011;5116;52.318;4.644;2023-04-30T14:11:52;1.40;;;1.30;;
10150;SDS011;5116;52.318;4.644;2023-04-30T14:14:21;1.20;;;1.10;;
10150;SDS011;5116;52.318;4.644;2023-04-30T14:16:48;1.13;;;1.13;;
10150;SDS011;5116;52.318;4.644;2023-04-30T14:19:16;1.00;;;1.00;;
10150;SDS011;5116;52.318;4.644;2023-04-30T14:21:44;1.37;;;1.27;;
10150;SDS011;5116;52.318;4.644;2023-04-30T14:24:12;1.00;;;1.00;;
10150;SDS011;5116;52.318;4.644;2023-04-30T14:26:41;1.80;;;1.50;;
10150;SDS011;5116;52.318;4.644;2023-04-30T14:29:10;1.00;;;1.00;;
10150;SDS011;5116;52.318;4.644;2023-04-30T14:31:38;0.90;;;0.90;;
10150;SDS011;5116;52.318;4.644;2023-04-30T14:34:09;1.03;;;1.00;;
10150;SDS011;5116;52.318;4.644;2023-04-30T14:36:39;1.00;;;1.00;;
10150;SDS011;5116;52.318;4.644;2023-04-30T14:39:08;0.87;;;0.87;;
10150;SDS011;5116;52.318;4.644;2023-04-30T14:41:37;1.10;;;1.00;;
10150;SDS011;5116;52.318;4.644;2023-04-30T14:44:05;1.37;;;1.27;;
10150;SDS011;5116;52.318;4.644;2023-04-30T14:46:32;1.83;;;1.10;;
10150;SDS011;5116;52.318;4.644;2023-04-30T14:49:00;1.63;;;1.17;;
10150;SDS011;5116;52.318;4.644;2023-04-30T14:51:28;1.07;;;1.00;;
10150;SDS011;5116;52.318;4.644;2023-04-30T14:53:55;1.57;;;1.40;;
10150;SDS011;5116;52.318;4.644;2023-04-30T14:56:23;1.13;;;1.10;;
10150;SDS011;5116;52.318;4.644;2023-04-30T14:58:51;1.50;;;1.40;;
10150;SDS011;5116;52.318;4.644;2023-04-30T15:01:18;1.37;;;1.20;;
10150;SDS011;5116;52.318;4.644;2023-04-30T15:03:47;0.93;;;0.93;;
10150;SDS011;5116;52.318;4.644;2023-04-30T15:06:14;1.30;;;1.20;;
10150;SDS011;5116;52.318;4.644;2023-04-30T15:08:42;1.20;;;1.10;;
10150;SDS011;5116;52.318;4.644;2023-04-30T15:11:09;1.50;;;1.40;;
10150;SDS011;5116;52.318;4.644;2023-04-30T15:13:38;1.20;;;1.10;;
10150;SDS011;5116;52.318;4.644;2023-04-30T15:16:05;1.40;;;1.07;;
10150;SDS011;5116;52.318;4.644;2023-04-30T15:18:33;1.70;;;1.20;;
10150;SDS011;5116;52.318;4.644;2023-04-30T15:21:00;1.37;;;1.20;;
10150;SDS011;5116;52.318;4.644;2023-04-30T15:23:28;0.90;;;0.90;;
10150;SDS011;5116;52.318;4.644;2023-04-30T15:25:56;1.30;;;1.20;;